Time;durP1;ratioP1;P1;durP2;ratioP2;P2;SDS_P1;SDS_P2;PMS_P1;PMS_P2;Temp;Humidity;BMP_temperature;BMP_pressure;BME280_temperature;BME280_humidity;BME280_pressure;Samples;Min_cycle;Max_cycle;Signal;HPM_P1;HPM_P2
2023/08/05 00:00:36;;;;;;;14.68;4.93;;;;;15.90;98545.00;;;;5094815;28;20039;-63
2023/08/05 00:03:03;;;;;;;9.23;4.85;;;;;16.00;98539.00;;;;5094806;28;20040;-63
2023/08/05 00:05:30;;;;;;;13.18;5.97;;;;;16.00;98546.00;;;;5094866;28;20138;-63
2023/08/05 00:07:56;;;;;;;7.88;5.07;;;;;16.00;98558.00;;;;5096661;28;20123;-63
2023/08/05 00:10:23;;;;;;;8.93;4.95;;;;;16.00;98557.00;;;;5095580;28;20074;-63
2023/08/05 00:12:49;;;;;;;9.10;5.03;;;;;16.00;98557.00;;;;5096186;28;20408;-63
2023/08/05 00:15:16;;;;;;;9.57;5.45;;;;;16.00;98557.00;;;;5094808;28;20044;-63
2023/08/05 00:17:42;;;;;;;7.72;5.72;;;;;15.90;98556.00;;;;5095724;28;20476;-62
2023/08/05 00:20:11;;;;;;;18.88;5.78;;;;;15.90;98564.00;;;;5095550;28;20044;-63
2023/08/05 00:22:38;;;;;;;6.60;5.20;;;;;15.80;98563.00;;;;5095742;28;20126;-62
2023/08/05 00:25:05;;;;;;;12.45;5.45;;;;;15.80;98566.00;;;;5095750;28;20535;-62
2023/08/05 00:27:32;;;;;;;6.65;5.22;;;;;15.80;98569.00;;;;5095630;28;20044;-63
2023/08/05 00:29:58;;;;;;;8.40;5.18;;;;;15.80;98570.00;;;;5094384;28;20497;-62
2023/08/05 00:32:27;;;;;;;10.55;5.10;;;;;15.80;98574.00;;;;5094342;28;20052;-63
2023/08/05 00:34:53;;;;;;;13.88;5.35;;;;;15.60;98574.00;;;;5096112;28;20119;-63
2023/08/05 00:37:20;;;;;;;8.25;4.78;;;;;15.50;98583.00;;;;5098775;28;20059;-63
2023/08/05 00:39:46;;;;;;;12.98;5.40;;;;;15.40;98579.00;;;;5100914;28;20101;-63
2023/08/05 00:42:18;;;;;;;7.75;5.20;;;;;15.50;98577.00;;;;5085050;28;20082;-61
2023/08/05 00:44:45;;;;;;;10.63;5.38;;;;;15.40;98587.00;;;;5102315;28;20071;-62
2023/08/05 00:47:16;;;;;;;7.18;4.57;;;;;15.50;98585.00;;;;5100775;28;20045;-62
2023/08/05 00:49:43;;;;;;;7.32;4.97;;;;;15.50;98582.00;;;;5103435;28;20105;-62
2023/08/05 00:52:11;;;;;;;8.15;5.40;;;;;15.40;98576.00;;;;5101738;28;20131;-62
2023/08/05 00:54:38;;;;;;;7.30;4.97;;;;;15.30;98578.00;;;;5100356;28;20080;-62
2023/08/05 00:57:05;;;;;;;9.73;5.38;;;;;15.10;98576.00;;;;5102467;28;20052;-63
2023/08/05 00:59:32;;;;;;;8.43;5.57;;;;;15.10;98571.00;;;;5101718;28;20413;-61
2023/08/05 01:01:59;;;;;;;9.43;5.82;;;;;15.10;98577.00;;;;5103541;28;20416;-62
2023/08/05 01:04:26;;;;;;;9.35;5.65;;;;;15.10;98578.00;;;;5080207;28;20482;-62
2023/08/05 01:06:53;;;;;;;6.57;4.88;;;;;15.00;98572.00;;;;5097479;28;20063;-62
2023/08/05 01:09:20;;;;;;;8.30;5.53;;;;;15.00;98572.00;;;;5096687;28;20044;-61
2023/08/05 01:11:47;;;;;;;10.38;5.70;;;;;14.90;98569.00;;;;5096250;28;20072;-61
2023/08/05 01:14:14;;;;;;;7.95;5.68;;;;;14.90;98583.00;;;;5095887;28;20076;-61
2023/08/05 01:16:40;;;;;;;8.45;5.93;;;;;14.90;98572.00;;;;5097497;28;20569;-63
2023/08/05 01:19:13;;;;;;;7.35;5.93;;;;;14.90;98580.00;;;;5079130;28;20078;-62
2023/08/05 01:21:51;;;;;;;9.30;5.63;;;;;14.80;98579.00;;;;5097211;28;20062;-63
2023/08/05 01:24:32;;;;;;;7.88;5.65;;;;;14.60;98574.00;;;;5095350;28;20044;-62
2023/08/05 01:26:59;;;;;;;9.40;4.85;;;;;14.50;98577.00;;;;5096689;28;20044;-63
2023/08/05 01:29:26;;;;;;;9.02;5.05;;;;;14.60;98566.00;;;;5096408;28;20044;-63
2023/08/05 01:31:53;;;;;;;9.55;5.18;;;;;14.80;98563.00;;;;5095364;28;20493;-62
2023/08/05 01:34:20;;;;;;;8.52;5.22;;;;;14.80;98555.00;;;;5095681;28;20047;-62
2023/08/05 01:36:47;;;;;;;8.68;5.05;;;;;14.80;98548.00;;;;5096685;28;20047;-62
2023/08/05 01:39:14;;;;;;;7.60;5.18;;;;;14.80;98541.00;;;;5098598;28;20111;-62
2023/08/05 01:41:40;;;;;;;8.65;4.50;;;;;14.80;98550.00;;;;5095642;28;20549;-62
2023/08/05 01:44:07;;;;;;;8.27;4.50;;;;;14.80;98545.00;;;;5094213;28;20552;-61
2023/08/05 01:46:33;;;;;;;8.73;5.10;;;;;14.80;98548.00;;;;5095426;28;20042;-62
2023/08/05 01:49:00;;;;;;;7.10;4.80;;;;;14.80;98553.00;;;;5094780;28;20571;-62
2023/08/05 01:51:27;;;;;;;8.02;5.45;;;;;14.80;98551.00;;;;5095081;28;20097;-62
2023/08/05 01:53:54;;;;;;;6.45;4.50;;;;;14.80;98548.00;;;;5093991;28;20044;-62
2023/08/05 01:56:20;;;;;;;9.02;5.10;;;;;14.80;98536.00;;;;5093463;28;20108;-62
2023/08/05 01:58:47;;;;;;;6.53;4.50;;;;;14.80;98537.00;;;;5093346;28;20040;-62
2023/08/05 02:01:13;;;;;;;9.65;5.10;;;;;14.80;98547.00;;;;5093190;28;20412;-62
2023/08/05 02:03:40;;;;;;;6.53;4.80;;;;;14.80;98537.00;;;;5094341;28;20487;-62
2023/08/05 02:06:07;;;;;;;6.18;4.28;;;;;14.80;98534.00;;;;5094406;28;20115;-62
2023/08/05 02:08:33;;;;;;;10.18;5.00;;;;;14.80;98539.00;;;;5094693;28;20040;-63
2023/08/05 02:11:02;;;;;;;8.18;4.50;;;;;14.90;98540.00;;;;5092803;28;20127;-62
2023/08/05 02:13:29;;;;;;;8.85;4.63;;;;;14.90;98541.00;;;;5094103;28;20044;-62
2023/08/05 02:15:56;;;;;;;6.40;4.95;;;;;14.90;98540.00;;;;5093383;28;20051;-62
2023/08/05 02:18:22;;;;;;;11.40;5.45;;;;;14.70;98537.00;;;;5094595;28;20039;-62
2023/08/05 02:20:49;;;;;;;8.07;4.68;;;;;14.50;98529.00;;;;5093487;28;20044;-62
2023/08/05 02:23:16;;;;;;;6.90;4.35;;;;;14.50;98523.00;;;;5094004;28;20044;-62
2023/08/05 02:25:42;;;;;;;6.15;4.72;;;;;14.50;98527.00;;;;5092895;28;20047;-62
2023/08/05 02:28:09;;;;;;;10.93;5.20;;;;;14.60;98515.00;;;;5092856;28;20075;-62
2023/08/05 02:30:35;;;;;;;5.85;4.80;;;;;14.60;98517.00;;;;5092697;28;20143;-62
2023/08/05 02:33:02;;;;;;;7.50;4.97;;;;;14.60;98519.00;;;;5094293;28;20094;-62
2023/08/05 02:35:28;;;;;;;5.38;4.55;;;;;14.40;98520.00;;;;5093271;28;20055;-62
2023/08/05 02:37:55;;;;;;;9.43;5.05;;;;;14.40;98523.00;;;;5093352;28;20135;-62
2023/08/05 02:40:21;;;;;;;7.70;4.68;;;;;14.40;98513.00;;;;5091664;28;20044;-62
2023/08/05 02:42:48;;;;;;;9.75;4.53;;;;;14.40;98505.00;;;;5093464;28;20047;-62
2023/08/05 02:45:15;;;;;;;9.98;4.53;;;;;14.50;98503.00;;;;5092274;28;20127;-61
2023/08/05 02:47:41;;;;;;;8.13;4.38;;;;;14.50;98508.00;;;;5093509;28;20460;-61
2023/08/05 02:50:09;;;;;;;7.20;4.50;;;;;14.40;98499.00;;;;5092298;28;20055;-62
2023/08/05 02:52:36;;;;;;;7.00;4.63;;;;;14.40;98500.00;;;;5093563;28;20040;-61
2023/08/05 02:55:03;;;;;;;6.03;4.57;;;;;14.40;98500.00;;;;5092391;28;20048;-61
2023/08/05 02:57:30;;;;;;;6.00;4.30;;;;;14.40;98498.00;;;;5093542;28;20044;-62
2023/08/05 02:59:56;;;;;;;7.10;4.68;;;;;14.40;98494.00;;;;5093512;28;20063;-61
2023/08/05 03:02:23;;;;;;;5.43;4.45;;;;;14.40;98496.00;;;;5092366;28;20048;-62
2023/08/05 03:04:50;;;;;;;6.65;4.93;;;;;14.50;98502.00;;;;5093354;28;20157;-61
2023/08/05 03:07:17;;;;;;;8.75;4.32;;;;;14.50;98492.00;;;;5093637;28;20044;-61
2023/08/05 03:09:44;;;;;;;5.97;4.30;;;;;14.50;98493.00;;;;5075511;28;20051;-61
2023/08/05 03:12:11;;;;;;;4.90;4.40;;;;;14.40;98489.00;;;;5092186;28;20044;-62
2023/08/05 03:14:37;;;;;;;7.38;4.25;;;;;14.40;98489.00;;;;5091989;28;20502;-61
2023/08/05 03:17:07;;;;;;;7.60;5.13;;;;;14.40;98484.00;;;;5075598;28;20094;-61
2023/08/05 03:19:33;;;;;;;5.43;4.18;;;;;14.40;98486.00;;;;5074893;28;20078;-61
2023/08/05 03:22:01;;;;;;;6.35;4.30;;;;;14.40;98487.00;;;;5092082;28;20516;-61
2023/08/05 03:24:28;;;;;;;6.68;4.22;;;;;14.30;98478.00;;;;5091875;28;20060;-61
2023/08/05 03:26:55;;;;;;;10.63;4.82;;;;;14.30;98490.00;;;;5092017;28;20048;-61
2023/08/05 03:29:22;;;;;;;4.72;4.30;;;;;14.30;98484.00;;;;5090778;28;20040;-60
2023/08/05 03:31:50;;;;;;;5.65;3.95;;;;;14.20;98478.00;;;;5090770;28;20051;-60
2023/08/05 03:34:23;;;;;;;7.05;4.05;;;;;14.10;98485.00;;;;5094974;28;20048;-60
2023/08/05 03:36:52;;;;;;;6.70;4.55;;;;;14.10;98482.00;;;;5094721;28;20054;-60
2023/08/05 03:39:19;;;;;;;10.35;4.80;;;;;14.20;98486.00;;;;5094782;28;20412;-61
2023/08/05 03:41:46;;;;;;;7.00;4.95;;;;;14.30;98491.00;;;;5096061;28;20055;-61
2023/08/05 03:44:12;;;;;;;4.78;4.35;;;;;14.20;98502.00;;;;5094791;28;20130;-61
2023/08/05 03:46:39;;;;;;;7.03;4.35;;;;;14.30;98503.00;;;;5094789;28;20044;-61
2023/08/05 03:49:06;;;;;;;6.50;4.70;;;;;14.30;98516.00;;;;5094720;28;20495;-61
2023/08/05 03:51:32;;;;;;;5.90;4.55;;;;;14.40;98521.00;;;;5095934;28;20127;-62
2023/08/05 03:54:03;;;;;;;8.35;5.03;;;;;14.40;98528.00;;;;5078428;28;20063;-61
2023/08/05 03:56:30;;;;;;;11.40;5.95;;;;;14.40;98526.00;;;;5077593;28;20044;-62
2023/08/05 03:58:58;;;;;;;8.77;5.65;;;;;14.40;98536.00;;;;5094797;28;20089;-60
2023/08/05 04:01:28;;;;;;;9.32;5.40;;;;;14.30;98539.00;;;;5094468;28;20063;-61
2023/08/05 04:03:54;;;;;;;9.63;4.68;;;;;14.30;98546.00;;;;5094515;28;20502;-61
2023/08/05 04:06:25;;;;;;;13.88;6.75;;;;;14.30;98554.00;;;;5077807;28;20048;-61
2023/08/05 04:08:54;;;;;;;17.50;6.57;;;;;14.30;98553.00;;;;5094284;28;20044;-61
2023/08/05 04:11:20;;;;;;;14.77;6.45;;;;;14.30;98569.00;;;;5095683;28;20040;-61
2023/08/05 04:13:50;;;;;;;19.85;7.13;;;;;14.20;98561.00;;;;5095456;28;20390;-61
2023/08/05 04:16:16;;;;;;;20.17;6.43;;;;;14.30;98559.00;;;;5094280;28;20056;-61
2023/08/05 04:18:48;;;;;;;11.15;6.35;;;;;14.30;98563.00;;;;5095362;28;20071;-61
2023/08/05 04:21:16;;;;;;;12.85;6.18;;;;;14.40;98561.00;;;;5093726;28;20044;-61
2023/08/05 04:23:43;;;;;;;16.63;6.40;;;;;14.40;98551.00;;;;5093833;28;20137;-59
2023/08/05 04:26:09;;;;;;;10.73;6.10;;;;;14.40;98557.00;;;;5095221;28;20074;-60
2023/08/05 04:28:36;;;;;;;12.57;6.05;;;;;14.40;98556.00;;;;5094319;28;20369;-59
2023/08/05 04:31:02;;;;;;;13.77;6.22;;;;;14.40;98559.00;;;;5094866;28;20040;-59
2023/08/05 04:33:31;;;;;;;11.70;5.07;;;;;14.40;98555.00;;;;5093635;28;20097;-59
2023/08/05 04:35:59;;;;;;;10.02;5.07;;;;;14.40;98554.00;;;;5095048;28;20468;-59
2023/08/05 04:38:26;;;;;;;5.85;4.80;;;;;14.50;98557.00;;;;5094884;28;20044;-60
2023/08/05 04:40:52;;;;;;;7.40;4.32;;;;;14.40;98554.00;;;;5094612;28;20040;-59
2023/08/05 04:43:19;;;;;;;8.13;4.60;;;;;14.50;98550.00;;;;5094338;28;20047;-59
2023/08/05 04:45:50;;;;;;;6.32;4.53;;;;;14.50;98547.00;;;;5094031;28;20044;-59
2023/08/05 04:48:17;;;;;;;8.27;5.18;;;;;14.40;98540.00;;;;5094605;28;20079;-59
2023/08/05 04:50:44;;;;;;;10.43;4.53;;;;;14.40;98540.00;;;;5094768;28;20127;-60
2023/08/05 04:53:12;;;;;;;13.93;5.20;;;;;14.40;98538.00;;;;5095569;28;20042;-61
2023/08/05 04:55:39;;;;;;;6.47;4.20;;;;;14.40;98546.00;;;;5094961;28;20133;-60
2023/08/05 04:58:06;;;;;;;6.47;4.13;;;;;14.40;98531.00;;;;5094805;28;20088;-60
2023/08/05 05:00:32;;;;;;;4.93;3.92;;;;;14.40;98538.00;;;;5094743;28;20484;-61
2023/08/05 05:02:59;;;;;;;6.97;4.70;;;;;14.40;98535.00;;;;5094538;28;20060;-60
2023/08/05 05:05:26;;;;;;;7.43;4.68;;;;;14.30;98537.00;;;;5094482;28;20056;-60
2023/08/05 05:07:52;;;;;;;7.03;4.70;;;;;14.20;98537.00;;;;5093494;28;20093;-61
2023/08/05 05:10:19;;;;;;;5.07;4.30;;;;;14.30;98535.00;;;;5093137;28;20032;-60
2023/08/05 05:12:45;;;;;;;12.48;4.47;;;;;14.30;98542.00;;;;5094178;28;20062;-60
2023/08/05 05:15:12;;;;;;;7.28;4.78;;;;;14.40;98543.00;;;;5093199;28;20074;-60
2023/08/05 05:17:39;;;;;;;11.63;5.85;;;;;14.20;98537.00;;;;5094221;28;20043;-61
2023/08/05 05:20:06;;;;;;;11.70;6.72;;;;;14.10;98526.00;;;;5092590;28;20067;-62
2023/08/05 05:22:33;;;;;;;12.00;6.22;;;;;14.10;98536.00;;;;5093987;28;20032;-61
2023/08/05 05:24:59;;;;;;;18.45;6.72;;;;;14.10;98540.00;;;;5094006;28;20040;-61
2023/08/05 05:27:26;;;;;;;9.60;5.90;;;;;14.20;98525.00;;;;5092913;28;20127;-61
2023/08/05 05:29:52;;;;;;;12.98;6.75;;;;;14.30;98523.00;;;;5092512;28;20048;-61
2023/08/05 05:32:19;;;;;;;8.93;6.60;;;;;14.40;98525.00;;;;5093924;28;20042;-61
2023/08/05 05:34:46;;;;;;;10.40;6.65;;;;;14.60;98519.00;;;;5092541;28;20040;-62
2023/08/05 05:37:12;;;;;;;22.33;6.57;;;;;14.80;98514.00;;;;5093617;28;20040;-61
2023/08/05 05:39:40;;;;;;;8.07;6.65;;;;;14.70;98509.00;;;;5093452;28;20516;-61
2023/08/05 05:42:06;;;;;;;8.43;6.43;;;;;14.90;98504.00;;;;5092238;28;20505;-61
2023/08/05 05:44:33;;;;;;;12.80;6.63;;;;;15.00;98511.00;;;;5092294;28;20143;-62
2023/08/05 05:47:00;;;;;;;8.02;5.82;;;;;15.00;98505.00;;;;5093468;28;20067;-61
2023/08/05 05:49:27;;;;;;;9.93;6.07;;;;;14.90;98510.00;;;;5075169;28;20083;-61
2023/08/05 05:51:54;;;;;;;7.63;5.10;;;;;14.90;98512.00;;;;5092721;28;20086;-61
2023/08/05 05:54:20;;;;;;;5.75;5.00;;;;;14.80;98505.00;;;;5075844;28;20044;-61
2023/08/05 05:56:47;;;;;;;8.45;5.40;;;;;14.80;98511.00;;;;5093232;28;20122;-61
2023/08/05 05:59:14;;;;;;;7.70;5.35;;;;;14.80;98503.00;;;;5091992;28;20127;-61
2023/08/05 06:01:41;;;;;;;5.32;4.82;;;;;14.90;98520.00;;;;5093365;28;20048;-62
2023/08/05 06:04:10;;;;;;;6.38;5.40;;;;;14.80;98521.00;;;;5093286;28;20501;-61
2023/08/05 06:06:37;;;;;;;5.05;4.55;;;;;14.90;98511.00;;;;5093200;28;20051;-61
2023/08/05 06:09:04;;;;;;;5.47;4.97;;;;;15.00;98513.00;;;;5093134;28;20051;-61
2023/08/05 06:11:34;;;;;;;8.70;5.28;;;;;15.20;98512.00;;;;5092654;28;20093;-61
2023/08/05 06:14:01;;;;;;;7.82;6.00;;;;;15.30;98505.00;;;;5092946;28;20048;-61
2023/08/05 06:16:27;;;;;;;6.50;5.20;;;;;15.20;98508.00;;;;5091872;28;20071;-61
2023/08/05 06:18:54;;;;;;;8.38;4.85;;;;;15.20;98503.00;;;;5092955;28;20526;-62
2023/08/05 06:21:20;;;;;;;6.03;5.18;;;;;15.30;98505.00;;;;5092572;28;20048;-61
2023/08/05 06:23:49;;;;;;;7.15;5.22;;;;;15.50;98510.00;;;;5092941;28;20083;-61
2023/08/05 06:26:16;;;;;;;8.48;4.95;;;;;15.70;98514.00;;;;5092999;28;20048;-62
2023/08/05 06:28:42;;;;;;;8.50;5.20;;;;;15.70;98508.00;;;;5092838;28;20040;-62
2023/08/05 06:31:09;;;;;;;6.43;4.72;;;;;15.70;98514.00;;;;5092462;28;20052;-62
2023/08/05 06:33:36;;;;;;;6.38;5.32;;;;;15.80;98510.00;;;;5091651;28;20035;-61
2023/08/05 06:36:03;;;;;;;5.60;4.80;;;;;15.90;98506.00;;;;5092706;28;20105;-61
2023/08/05 06:38:29;;;;;;;5.72;4.55;;;;;16.10;98514.00;;;;5091358;28;20076;-61
2023/08/05 06:40:56;;;;;;;6.40;4.70;;;;;16.20;98507.00;;;;5092167;28;20484;-62
2023/08/05 06:43:23;;;;;;;5.90;4.82;;;;;16.30;98512.00;;;;5091381;28;20127;-61
2023/08/05 06:45:52;;;;;;;7.82;4.20;;;;;16.40;98505.00;;;;5092512;28;20134;-62
2023/08/05 06:48:19;;;;;;;5.70;4.50;;;;;16.50;98504.00;;;;5092418;28;20044;-61
2023/08/05 06:50:45;;;;;;;5.50;5.00;;;;;16.50;98512.00;;;;5090984;28;20043;-62
2023/08/05 06:53:12;;;;;;;5.90;4.72;;;;;16.60;98498.00;;;;5092276;28;20123;-61
2023/08/05 06:55:39;;;;;;;5.90;5.30;;;;;16.70;98505.00;;;;5092146;28;20377;-62
2023/08/05 06:58:05;;;;;;;5.82;4.40;;;;;16.60;98499.00;;;;5091592;28;20119;-60
2023/08/05 07:00:32;;;;;;;5.32;4.82;;;;;16.60;98492.00;;;;5092295;28;20044;-61
2023/08/05 07:02:58;;;;;;;5.35;4.72;;;;;16.60;98490.00;;;;5092247;28;20050;-61
2023/08/05 07:05:25;;;;;;;5.28;4.60;;;;;16.70;98493.00;;;;5092422;28;20480;-61
2023/08/05 07:07:52;;;;;;;6.15;4.75;;;;;16.80;98500.00;;;;5090713;28;20496;-62
2023/08/05 07:10:21;;;;;;;6.82;4.93;;;;;16.90;98493.00;;;;5091968;28;20539;-62
2023/08/05 07:12:48;;;;;;;6.93;4.85;;;;;17.10;98498.00;;;;5091126;28;20044;-61
2023/08/05 07:15:14;;;;;;;8.63;4.13;;;;;17.30;98495.00;;;;5091248;28;20044;-62
2023/08/05 07:17:41;;;;;;;6.72;4.13;;;;;17.50;98487.00;;;;5092127;28;20044;-62
2023/08/05 07:20:08;;;;;;;10.25;6.85;;;;;17.60;98481.00;;;;5090742;28;20067;-62
2023/08/05 07:22:35;;;;;;;6.72;3.78;;;;;17.70;98482.00;;;;5092219;28;20105;-60
2023/08/05 07:25:02;;;;;;;4.68;4.03;;;;;17.80;98487.00;;;;5092174;28;20040;-60
2023/08/05 07:27:29;;;;;;;8.07;4.50;;;;;18.00;98482.00;;;;5092246;28;20081;-60
2023/08/05 07:29:55;;;;;;;6.60;4.10;;;;;18.00;98465.00;;;;5092057;28;20048;-61
2023/08/05 07:32:22;;;;;;;5.38;4.88;;;;;18.10;98467.00;;;;5092432;28;20119;-61
2023/08/05 07:34:53;;;;;;;7.32;3.88;;;;;18.20;98463.00;;;;5092191;28;20126;-60
2023/08/05 07:37:20;;;;;;;7.38;4.35;;;;;18.30;98468.00;;;;5092086;28;20044;-61
2023/08/05 07:39:48;;;;;;;4.95;4.13;;;;;18.30;98458.00;;;;5091793;28;20529;-61
2023/08/05 07:42:15;;;;;;;7.25;3.60;;;;;18.40;98454.00;;;;5092076;28;20048;-61
2023/08/05 07:44:42;;;;;;;7.53;4.00;;;;;18.50;98457.00;;;;5092211;28;20123;-61
2023/08/05 07:47:09;;;;;;;4.63;3.58;;;;;18.60;98454.00;;;;5091957;28;20048;-61
2023/08/05 07:49:37;;;;;;;6.25;3.83;;;;;18.70;98450.00;;;;5091658;28;20044;-61
2023/08/05 07:52:07;;;;;;;4.50;3.97;;;;;18.80;98457.00;;;;5091944;28;20123;-61
2023/08/05 07:54:34;;;;;;;8.35;5.60;;;;;18.90;98459.00;;;;5092223;28;20408;-61
2023/08/05 07:57:00;;;;;;;5.00;3.83;;;;;18.90;98464.00;;;;5091982;28;20067;-61
2023/08/05 07:59:27;;;;;;;7.20;4.10;;;;;19.00;98449.00;;;;5092051;28;20127;-61
2023/08/05 08:01:55;;;;;;;5.15;4.10;;;;;19.20;98455.00;;;;5092414;28;20511;-61
2023/08/05 08:04:22;;;;;;;5.97;3.55;;;;;19.10;98456.00;;;;5092594;28;20050;-61
2023/08/05 08:06:48;;;;;;;4.40;3.33;;;;;19.20;98455.00;;;;5092423;28;20123;-61
2023/08/05 08:09:15;;;;;;;6.00;3.80;;;;;19.30;98450.00;;;;5092868;28;20113;-62
2023/08/05 08:11:42;;;;;;;4.40;4.00;;;;;19.50;98451.00;;;;5091843;28;20044;-62
2023/08/05 08:14:08;;;;;;;4.95;3.58;;;;;19.50;98452.00;;;;5085974;28;20060;-62
2023/08/05 08:16:35;;;;;;;5.18;3.67;;;;;19.70;98452.00;;;;5089292;28;20052;-61
2023/08/05 08:19:04;;;;;;;6.18;3.60;;;;;19.80;98445.00;;;;5090692;28;20067;-61
2023/08/05 08:21:31;;;;;;;4.32;3.55;;;;;19.80;98435.00;;;;5095132;28;20114;-61
2023/08/05 08:23:57;;;;;;;6.22;3.47;;;;;19.90;98434.00;;;;5095263;28;20586;-61
2023/08/05 08:26:24;;;;;;;14.13;11.88;;;;;20.00;98438.00;;;;5095371;28;20159;-61
2023/08/05 08:28:50;;;;;;;5.75;3.90;;;;;20.10;98428.00;;;;5094146;28;20134;-61
2023/08/05 08:31:17;;;;;;;6.05;3.58;;;;;20.20;98430.00;;;;5095056;28;20472;-61
2023/08/05 08:33:44;;;;;;;5.55;3.65;;;;;20.30;98423.00;;;;5094084;28;20048;-62
2023/08/05 08:36:11;;;;;;;4.15;3.13;;;;;20.40;98416.00;;;;5095045;28;20048;-61
2023/08/05 08:38:37;;;;;;;3.38;2.70;;;;;20.40;98417.00;;;;5094806;28;20122;-61
2023/08/05 08:41:04;;;;;;;5.03;3.25;;;;;20.30;98419.00;;;;5094795;28;20048;-61
2023/08/05 08:43:31;;;;;;;5.63;2.70;;;;;20.40;98424.00;;;;5094873;28;20109;-61
2023/08/05 08:45:59;;;;;;;4.65;3.10;;;;;20.50;98424.00;;;;5095199;28;20044;-61
2023/08/05 08:48:28;;;;;;;3.88;2.85;;;;;20.60;98428.00;;;;5094991;28;20115;-61
2023/08/05 08:50:57;;;;;;;5.07;3.28;;;;;20.70;98424.00;;;;5094639;28;20561;-62
2023/08/05 08:53:23;;;;;;;4.75;3.50;;;;;20.80;98417.00;;;;5094735;28;20044;-61
2023/08/05 08:55:50;;;;;;;4.18;3.00;;;;;20.90;98417.00;;;;5094645;28;20151;-61
2023/08/05 08:58:17;;;;;;;4.22;3.20;;;;;20.90;98419.00;;;;5093623;28;20047;-61
2023/08/05 09:00:45;;;;;;;3.85;2.92;;;;;20.90;98425.00;;;;5094235;28;20101;-61
2023/08/05 09:03:13;;;;;;;4.07;2.92;;;;;20.80;98421.00;;;;5094421;28;20114;-61
2023/08/05 09:05:41;;;;;;;6.47;3.72;;;;;20.70;98417.00;;;;5093243;28;20485;-61
2023/08/05 09:08:09;;;;;;;4.20;3.10;;;;;20.60;98415.00;;;;5094320;28;20032;-61
2023/08/05 09:10:37;;;;;;;4.00;2.97;;;;;20.60;98402.00;;;;5093042;28;20044;-61
2023/08/05 09:13:05;;;;;;;3.42;3.08;;;;;20.90;98395.00;;;;5076134;28;20047;-61
2023/08/05 09:15:36;;;;;;;3.40;3.10;;;;;21.20;98390.00;;;;5094337;28;20040;-61
2023/08/05 09:18:05;;;;;;;3.42;2.90;;;;;21.30;98404.00;;;;5094424;28;20135;-61
2023/08/05 09:20:32;;;;;;;2.67;2.03;;;;;21.20;98399.00;;;;5094040;28;20066;-61
2023/08/05 09:23:03;;;;;;;4.63;2.80;;;;;21.10;98403.00;;;;5094128;28;20067;-62
2023/08/05 09:25:31;;;;;;;2.72;2.50;;;;;21.10;98398.00;;;;5094139;28;20400;-62
2023/08/05 09:28:00;;;;;;;2.60;2.40;;;;;21.40;98387.00;;;;5093822;28;20507;-62
2023/08/05 09:30:27;;;;;;;4.15;2.10;;;;;21.40;98386.00;;;;5093535;28;20048;-62
2023/08/05 09:32:54;;;;;;;3.00;2.30;;;;;21.70;98383.00;;;;5093962;28;20044;-60
2023/08/05 09:35:21;;;;;;;4.65;2.60;;;;;21.80;98382.00;;;;5093646;28;20044;-59
2023/08/05 09:37:49;;;;;;;4.47;2.58;;;;;21.80;98388.00;;;;5093584;28;20488;-59
2023/08/05 09:40:24;;;;;;;4.95;2.30;;;;;21.60;98380.00;;;;5093467;28;20044;-60
2023/08/05 09:42:54;;;;;;;2.25;2.05;;;;;21.50;98386.00;;;;5091237;28;20135;-59
2023/08/05 09:45:21;;;;;;;6.55;3.15;;;;;21.40;98376.00;;;;5093543;28;20143;-59
2023/08/05 09:47:50;;;;;;;3.00;2.22;;;;;21.40;98370.00;;;;5093622;28;20046;-59
2023/08/05 09:50:18;;;;;;;3.65;1.83;;;;;21.60;98360.00;;;;5093377;28;20142;-59
2023/08/05 09:52:49;;;;;;;2.72;2.10;;;;;21.80;98360.00;;;;5093383;28;20050;-60
2023/08/05 09:55:18;;;;;;;3.75;1.77;;;;;22.10;98370.00;;;;5075634;28;20067;-59
2023/08/05 09:57:46;;;;;;;2.60;1.67;;;;;22.30;98362.00;;;;5091960;28;20105;-58
2023/08/05 10:00:14;;;;;;;3.22;1.70;;;;;22.20;98363.00;;;;5093008;28;20131;-58
2023/08/05 10:02:43;;;;;;;2.95;1.80;;;;;22.30;98353.00;;;;5093216;28;20052;-58
2023/08/05 10:05:10;;;;;;;2.22;1.80;;;;;22.40;98360.00;;;;5091766;28;20455;-57
2023/08/05 10:07:39;;;;;;;2.97;1.70;;;;;22.70;98358.00;;;;5093155;28;20044;-59
2023/08/05 10:10:16;;;;;;;2.25;1.70;;;;;22.80;98349.00;;;;5093085;28;20497;-56
2023/08/05 10:12:58;;;;;;;3.95;2.15;;;;;22.80;98346.00;;;;5093365;28;20063;-58
2023/08/05 10:15:29;;;;;;;2.35;1.67;;;;;23.00;98349.00;;;;5093016;28;20044;-58
2023/08/05 10:17:56;;;;;;;2.22;2.03;;;;;23.00;98345.00;;;;5093244;28;20051;-57
2023/08/05 10:20:23;;;;;;;2.63;1.50;;;;;23.10;98343.00;;;;5092697;28;20131;-57
2023/08/05 10:23:09;;;;;;;2.53;1.55;;;;;23.20;98339.00;;;;5092993;28;20050;-58
2023/08/05 10:25:46;;;;;;;3.28;1.60;;;;;23.20;98342.00;;;;5091799;28;20048;-58
2023/08/05 10:28:27;;;;;;;2.85;1.85;;;;;23.40;98346.00;;;;5092919;28;20070;-58
2023/08/05 10:30:55;;;;;;;1.83;1.40;;;;;23.50;98354.00;;;;5091462;28;20051;-59
2023/08/05 10:33:22;;;;;;;2.03;1.60;;;;;23.60;98343.00;;;;5092908;28;20056;-58
2023/08/05 10:35:49;;;;;;;2.78;1.55;;;;;23.70;98339.00;;;;5092433;28;20044;-58
2023/08/05 10:38:21;;;;;;;2.40;1.70;;;;;23.90;98329.00;;;;5092634;28;20463;-58
2023/08/05 10:41:04;;;;;;;2.35;1.88;;;;;24.20;98331.00;;;;5092206;28;20130;-58
2023/08/05 10:43:31;;;;;;;2.42;1.52;;;;;24.40;98331.00;;;;5091906;28;20241;-59
2023/08/05 10:46:08;;;;;;;2.08;1.40;;;;;24.40;98329.00;;;;5092684;28;20119;-58
2023/08/05 10:48:47;;;;;;;2.47;1.42;;;;;24.40;98322.00;;;;5092578;28;20445;-59
2023/08/05 10:51:18;;;;;;;1.55;1.45;;;;;24.50;98326.00;;;;5092285;28;20097;-58
2023/08/05 10:53:51;;;;;;;2.75;2.35;;;;;24.50;98326.00;;;;5091664;28;20044;-56
2023/08/05 10:56:18;;;;;;;1.90;1.58;;;;;24.30;98324.00;;;;5090970;28;20062;-58
2023/08/05 10:58:47;;;;;;;1.90;1.48;;;;;24.20;98323.00;;;;5090871;28;20040;-59
2023/08/05 11:01:15;;;;;;;1.52;1.42;;;;;24.20;98321.00;;;;5092114;28;20070;-57
2023/08/05 11:03:49;;;;;;;3.55;1.70;;;;;24.20;98321.00;;;;5092147;28;20063;-58
2023/08/05 11:06:23;;;;;;;2.60;1.35;;;;;24.10;98321.00;;;;5092274;28;20072;-58
2023/08/05 11:08:50;;;;;;;1.42;1.33;;;;;24.20;98314.00;;;;5091232;28;20048;-58
2023/08/05 11:11:17;;;;;;;1.27;1.17;;;;;24.00;98317.00;;;;5092124;28;20068;-58
2023/08/05 11:13:46;;;;;;;2.45;1.40;;;;;24.00;98307.00;;;;5092103;28;20111;-59
2023/08/05 11:16:14;;;;;;;1.13;1.02;;;;;24.00;98317.00;;;;5092239;28;20047;-59
2023/08/05 11:18:42;;;;;;;1.48;1.30;;;;;23.80;98309.00;;;;5090963;28;20184;-58
2023/08/05 11:21:13;;;;;;;1.48;1.38;;;;;23.90;98307.00;;;;5091984;28;20040;-59
2023/08/05 11:23:42;;;;;;;1.75;1.02;;;;;23.90;98309.00;;;;5092205;28;20122;-58
2023/08/05 11:26:09;;;;;;;3.58;1.15;;;;;24.00;98296.00;;;;5092178;28;20177;-59
2023/08/05 11:28:46;;;;;;;2.47;1.65;;;;;24.20;98298.00;;;;5090910;28;20489;-59
2023/08/05 11:31:22;;;;;;;1.20;1.10;;;;;24.20;98288.00;;;;5092061;28;20051;-58
2023/08/05 11:33:50;;;;;;;1.63;1.25;;;;;24.20;98288.00;;;;5092403;28;20461;-59
2023/08/05 11:36:25;;;;;;;1.45;1.35;;;;;24.30;98283.00;;;;5090625;28;20404;-58
2023/08/05 11:38:54;;;;;;;1.20;1.10;;;;;24.20;98280.00;;;;5090742;28;20044;-58
2023/08/05 11:41:22;;;;;;;1.67;1.58;;;;;24.20;98282.00;;;;5091909;28;20483;-59
2023/08/05 11:43:48;;;;;;;1.85;1.73;;;;;24.20;98289.00;;;;5092033;28;20046;-58
2023/08/05 11:46:26;;;;;;;2.80;1.60;;;;;23.90;98283.00;;;;5092112;28;20043;-58
2023/08/05 11:49:09;;;;;;;1.40;1.30;;;;;24.00;98278.00;;;;5091782;28;20046;-58
2023/08/05 11:51:48;;;;;;;4.65;1.50;;;;;24.10;98263.00;;;;5091873;28;20117;-59
2023/08/05 11:54:28;;;;;;;2.95;1.60;;;;;24.30;98269.00;;;;5094075;28;20576;-58
2023/08/05 11:56:55;;;;;;;2.15;1.30;;;;;24.40;98263.00;;;;5094477;28;20083;-58
2023/08/05 11:59:44;;;;;;;3.40;1.60;;;;;24.30;98259.00;;;;5095393;28;20040;-58
2023/08/05 12:02:18;;;;;;;1.93;1.60;;;;;24.20;98253.00;;;;5095650;28;20492;-58
2023/08/05 12:04:49;;;;;;;1.60;1.50;;;;;24.10;98249.00;;;;5095610;28;20048;-58
2023/08/05 12:07:18;;;;;;;1.25;1.05;;;;;24.10;98240.00;;;;5095745;28;20064;-58
2023/08/05 12:10:09;;;;;;;1.77;1.30;;;;;24.20;98239.00;;;;5095391;28;20068;-58
2023/08/05 12:12:37;;;;;;;2.65;1.30;;;;;24.30;98223.00;;;;5095119;28;20154;-58
2023/08/05 12:15:26;;;;;;;1.40;1.30;;;;;24.30;98225.00;;;;5095436;28;20048;-58
2023/08/05 12:17:56;;;;;;;1.65;1.38;;;;;24.40;98208.00;;;;5094244;28;20052;-58
2023/08/05 12:20:28;;;;;;;2.17;1.80;;;;;24.60;98212.00;;;;5095049;28;20396;-58